createdAt,value
2023-03-22T00:01:25.497Z,15.76
2023-03-22T00:03:52.174Z,15.75
2023-03-22T00:06:19.053Z,15.71
2023-03-22T00:08:49.579Z,15.68
2023-03-22T00:11:16.086Z,15.65
2023-03-22T00:13:42.574Z,15.56
2023-03-22T00:16:09.570Z,15.33
2023-03-22T00:18:36.524Z,15.39
2023-03-22T00:21:03.202Z,15.26
2023-03-22T00:23:29.711Z,15.23
2023-03-22T00:25:56.856Z,15.26
2023-03-22T00:28:24.402Z,15.19
2023-03-22T00:30:57.254Z,15.20
2023-03-22T00:33:23.869Z,15.18
2023-03-22T00:35:57.607Z,15.13
2023-03-22T00:38:39.548Z,15.06
2023-03-22T00:41:17.073Z,14.94
2023-03-22T00:43:44.856Z,14.87
2023-03-22T00:46:13.079Z,14.88
2023-03-22T00:48:40.261Z,14.80
2023-03-22T00:51:08.233Z,14.70
2023-03-22T00:53:35.375Z,14.70
2023-03-22T00:56:03.381Z,14.67
2023-03-22T00:58:29.875Z,14.51
2023-03-22T01:00:56.397Z,14.49
2023-03-22T01:03:23.035Z,14.48
2023-03-22T01:05:51.276Z,14.45
2023-03-22T01:08:17.778Z,14.45
2023-03-22T01:10:44.881Z,14.33
2023-03-22T01:13:12.457Z,14.32
2023-03-22T01:15:39.007Z,14.27
2023-03-22T01:18:05.694Z,14.21
2023-03-22T01:20:32.281Z,14.31
2023-03-22T01:22:58.836Z,14.27
2023-03-22T01:25:25.437Z,14.31
2023-03-22T01:27:51.988Z,14.26
2023-03-22T01:30:18.535Z,14.27
2023-03-22T01:32:44.996Z,14.12
2023-03-22T01:35:11.572Z,14.19
2023-03-22T01:37:38.119Z,14.13
2023-03-22T01:40:05.577Z,14.09
2023-03-22T01:42:32.073Z,13.98
2023-03-22T01:45:35.803Z,14.01
2023-03-22T01:48:10.131Z,13.93
2023-03-22T01:50:41.069Z,14.02
2023-03-22T01:53:11.012Z,14.01
2023-03-22T01:55:38.046Z,13.95
2023-03-22T01:58:04.916Z,13.80
2023-03-22T02:00:33.110Z,13.77
2023-03-22T02:02:59.981Z,13.69
2023-03-22T02:05:26.773Z,13.58
2023-03-22T02:07:53.603Z,13.40
2023-03-22T02:10:25.974Z,13.24
2023-03-22T02:13:06.503Z,13.28
2023-03-22T02:16:10.239Z,13.28
2023-03-22T02:19:02.373Z,13.27
2023-03-22T02:22:14.708Z,13.31
2023-03-22T02:25:19.231Z,13.28
2023-03-22T02:27:45.629Z,13.13
2023-03-22T02:30:33.769Z,13.13
2023-03-22T02:33:21.650Z,13.18
2023-03-22T02:36:26.400Z,13.21
2023-03-22T02:38:58.364Z,13.20
2023-03-22T02:41:35.954Z,13.21
2023-03-22T02:44:23.124Z,13.34
2023-03-22T02:47:07.484Z,13.36
2023-03-22T02:49:53.283Z,13.28
2023-03-22T02:52:44.621Z,13.33
2023-03-22T02:55:16.045Z,13.32
2023-03-22T02:57:55.756Z,13.31
2023-03-22T03:00:25.823Z,13.26
2023-03-22T03:03:02.581Z,13.19
2023-03-22T03:05:33.354Z,13.26
2023-03-22T03:08:02.727Z,13.20
2023-03-22T03:10:29.976Z,12.95
2023-03-22T03:12:58.513Z,12.79
2023-03-22T03:15:25.081Z,12.84
2023-03-22T03:18:03.540Z,12.84
2023-03-22T03:20:56.442Z,12.90
2023-03-22T03:23:22.875Z,12.96
2023-03-22T03:26:14.510Z,12.73
2023-03-22T03:29:17.470Z,12.82
2023-03-22T03:31:55.711Z,12.90
2023-03-22T03:34:50.223Z,12.95
2023-03-22T03:37:29.015Z,12.82
2023-03-22T03:40:09.188Z,12.80
2023-03-22T03:42:42.048Z,12.65
2023-03-22T03:45:09.737Z,12.76
2023-03-22T03:47:37.156Z,12.50
2023-03-22T03:50:05.881Z,12.55
2023-03-22T03:52:32.470Z,12.49
2023-03-22T03:54:58.932Z,12.59
2023-03-22T03:57:25.411Z,12.61
2023-03-22T03:59:51.903Z,12.51
2023-03-22T04:02:18.489Z,12.43
2023-03-22T04:04:45.058Z,12.51
2023-03-22T04:07:11.812Z,12.39
2023-03-22T04:09:39.115Z,12.44
2023-03-22T04:12:05.897Z,12.47
2023-03-22T04:14:32.369Z,12.45
2023-03-22T04:16:58.935Z,12.36
2023-03-22T04:19:25.508Z,12.42
2023-03-22T04:21:52.382Z,12.38
2023-03-22T04:24:20.351Z,12.44
2023-03-22T04:26:47.065Z,12.48
2023-03-22T04:29:13.872Z,12.47
2023-03-22T04:31:40.380Z,12.46
2023-03-22T04:34:06.896Z,12.26
2023-03-22T04:36:35.390Z,12.29
2023-03-22T04:39:04.053Z,12.31
2023-03-22T04:41:30.526Z,12.31
2023-03-22T04:43:56.992Z,12.22
2023-03-22T04:46:24.122Z,12.32
2023-03-22T04:48:50.655Z,12.24
2023-03-22T04:51:17.172Z,12.23
2023-03-22T04:53:43.743Z,12.19
2023-03-22T04:56:13.288Z,12.03
2023-03-22T04:58:42.069Z,12.10
2023-03-22T05:01:10.689Z,12.17
2023-03-22T05:03:37.677Z,12.20
2023-03-22T05:06:07.249Z,12.13
2023-03-22T05:08:34.401Z,12.15
2023-03-22T05:11:07.883Z,12.04
2023-03-22T05:13:34.540Z,12.02
2023-03-22T05:16:01.088Z,12.03
2023-03-22T05:18:27.742Z,12.14
2023-03-22T05:20:57.235Z,12.15
2023-03-22T05:23:24.673Z,12.02
2023-03-22T05:25:53.734Z,12.13
2023-03-22T05:28:21.476Z,12.11
2023-03-22T05:30:49.601Z,12.08
2023-03-22T05:33:16.095Z,12.00
2023-03-22T05:35:43.191Z,12.01
2023-03-22T05:38:10.373Z,11.95
2023-03-22T05:40:36.886Z,11.87
2023-03-22T05:43:03.383Z,11.83
2023-03-22T05:45:29.877Z,12.01
2023-03-22T05:47:56.515Z,12.00
2023-03-22T05:50:23.674Z,11.93
2023-03-22T05:52:50.952Z,11.90
2023-03-22T05:55:18.130Z,11.84
2023-03-22T05:57:45.702Z,11.94
2023-03-22T06:00:15.610Z,12.06
2023-03-22T06:02:44.458Z,11.88
2023-03-22T06:05:11.177Z,12.06
2023-03-22T06:07:38.985Z,12.00
2023-03-22T06:10:06.825Z,12.03
2023-03-22T06:12:33.343Z,12.08
2023-03-22T06:15:00.017Z,11.97
2023-03-22T06:17:26.823Z,11.90
2023-03-22T06:19:53.382Z,12.10
2023-03-22T06:22:20.831Z,12.00
2023-03-22T06:24:47.640Z,12.10
2023-03-22T06:27:14.162Z,12.12
2023-03-22T06:29:40.866Z,12.13
2023-03-22T06:32:07.521Z,12.20
2023-03-22T06:34:34.249Z,12.29
2023-03-22T06:37:00.765Z,12.28
2023-03-22T06:39:27.588Z,12.29
2023-03-22T06:41:54.068Z,12.48
2023-03-22T06:44:20.567Z,12.51
2023-03-22T06:46:47.368Z,12.48
2023-03-22T06:49:13.882Z,12.55
2023-03-22T06:51:40.392Z,12.58
2023-03-22T06:54:06.975Z,12.69
2023-03-22T06:56:33.438Z,12.79
2023-03-22T06:58:59.934Z,12.82
2023-03-22T07:01:26.526Z,12.96
2023-03-22T07:03:53.033Z,13.14
2023-03-22T07:06:19.596Z,13.32
2023-03-22T07:08:46.084Z,13.44
2023-03-22T07:11:12.674Z,13.58
2023-03-22T07:13:39.141Z,13.72
2023-03-22T07:16:06.167Z,13.84
2023-03-22T07:18:32.722Z,13.97
2023-03-22T07:20:59.327Z,14.10
2023-03-22T07:23:25.853Z,14.15
2023-03-22T07:25:52.355Z,14.25
2023-03-22T07:28:18.892Z,14.42
2023-03-22T07:30:45.414Z,14.53
2023-03-22T07:33:11.909Z,14.52
2023-03-22T07:35:38.832Z,14.52
2023-03-22T07:38:06.024Z,14.71
2023-03-22T07:40:32.837Z,14.78
2023-03-22T07:42:59.391Z,14.86
2023-03-22T07:45:26.114Z,14.84
2023-03-22T07:47:52.766Z,14.98
2023-03-22T07:50:19.366Z,15.05
2023-03-22T07:52:45.968Z,15.08
2023-03-22T07:55:14.231Z,15.21
2023-03-22T07:57:41.006Z,15.20
2023-03-22T08:00:09.158Z,15.34
2023-03-22T08:02:35.927Z,15.21
2023-03-22T08:05:02.466Z,15.33
2023-03-22T08:07:28.978Z,15.34
2023-03-22T08:09:56.518Z,15.45
2023-03-22T08:12:24.368Z,15.25
2023-03-22T08:14:50.848Z,15.38
2023-03-22T08:17:18.129Z,15.58
2023-03-22T08:19:45.021Z,15.47
2023-03-22T08:22:12.763Z,15.52
2023-03-22T08:24:39.340Z,15.56
2023-03-22T08:27:05.820Z,15.39
2023-03-22T08:29:32.336Z,15.58
2023-03-22T08:31:58.859Z,15.61
2023-03-22T08:34:25.445Z,15.43
2023-03-22T08:36:51.919Z,15.44
2023-03-22T08:39:18.611Z,15.57
2023-03-22T08:41:45.073Z,15.59
2023-03-22T08:44:11.553Z,15.39
2023-03-22T08:46:38.035Z,15.40
2023-03-22T08:49:04.648Z,15.50
2023-03-22T08:51:31.233Z,15.39
2023-03-22T08:53:57.724Z,15.49
2023-03-22T08:56:24.194Z,15.60
2023-03-22T08:58:50.697Z,15.67
2023-03-22T09:01:17.524Z,15.59
2023-03-22T09:03:44.065Z,15.68
2023-03-22T09:06:11.089Z,15.57
2023-03-22T09:08:37.618Z,15.93
2023-03-22T09:11:04.662Z,16.04
2023-03-22T09:13:31.136Z,16.14
2023-03-22T09:15:57.711Z,16.09
2023-03-22T09:18:25.141Z,16.35
2023-03-22T09:20:52.680Z,16.33
2023-03-22T09:23:20.162Z,16.53
2023-03-22T09:25:48.009Z,16.71
2023-03-22T09:28:15.224Z,16.58
2023-03-22T09:30:43.031Z,16.62
2023-03-22T09:33:09.682Z,16.84
2023-03-22T09:35:40.778Z,16.98
2023-03-22T09:38:07.435Z,17.08
2023-03-22T09:40:36.365Z,16.90
2023-03-22T09:43:08.805Z,16.78
2023-03-22T09:45:40.926Z,16.85
2023-03-22T09:48:29.535Z,16.79
2023-03-22T09:50:56.414Z,16.68
2023-03-22T09:53:26.405Z,16.74
2023-03-22T09:56:17.244Z,16.61
2023-03-22T09:58:46.685Z,16.56
2023-03-22T10:01:13.239Z,16.79
2023-03-22T10:03:57.998Z,16.95
2023-03-22T10:06:29.004Z,16.48
2023-03-22T10:09:25.772Z,16.55
2023-03-22T10:12:24.806Z,16.73
2023-03-22T10:15:03.278Z,16.95
2023-03-22T10:17:30.957Z,17.15
2023-03-22T10:20:17.669Z,16.95
2023-03-22T10:22:47.460Z,17.32
2023-03-22T10:25:20.609Z,17.57
2023-03-22T10:27:50.171Z,17.57
2023-03-22T10:30:21.118Z,17.37
2023-03-22T10:33:12.454Z,17.69
2023-03-22T10:35:39.533Z,17.77
2023-03-22T10:38:18.890Z,17.73
2023-03-22T10:40:49.001Z,17.64
2023-03-22T10:43:23.473Z,17.52
2023-03-22T10:45:53.197Z,17.97
2023-03-22T10:48:30.444Z,17.93
2023-03-22T10:50:59.659Z,18.16
2023-03-22T10:53:39.573Z,17.84
2023-03-22T10:56:13.009Z,17.88
2023-03-22T10:58:39.674Z,17.77
2023-03-22T11:01:12.467Z,17.98
2023-03-22T11:04:03.112Z,18.17
2023-03-22T11:06:32.580Z,17.75
2023-03-22T11:09:16.723Z,17.84
2023-03-22T11:11:55.496Z,17.83
2023-03-22T11:14:33.000Z,18.16
2023-03-22T11:17:07.421Z,18.21
2023-03-22T11:19:49.936Z,18.15
2023-03-22T11:22:30.031Z,18.37
2023-03-22T11:24:56.609Z,17.61
2023-03-22T11:27:27.405Z,17.68
2023-03-22T11:29:58.565Z,17.85
2023-03-22T11:32:37.424Z,17.68
2023-03-22T11:35:21.517Z,17.90
2023-03-22T11:37:54.363Z,17.63
2023-03-22T11:40:24.401Z,17.82
2023-03-22T11:42:56.846Z,17.95
2023-03-22T11:45:37.768Z,17.58
2023-03-22T11:48:14.690Z,17.81
2023-03-22T11:50:44.624Z,17.93
2023-03-22T11:53:16.819Z,17.83
2023-03-22T11:55:45.701Z,17.74
2023-03-22T11:58:47.272Z,18.08
2023-03-22T12:01:26.614Z,17.81
2023-03-22T12:03:56.591Z,17.99
2023-03-22T12:06:28.967Z,17.71
2023-03-22T12:09:02.772Z,17.97
2023-03-22T12:11:43.328Z,17.74
2023-03-22T12:14:29.673Z,17.62
2023-03-22T12:17:05.938Z,17.51
2023-03-22T12:19:57.259Z,17.83
2023-03-22T12:22:47.382Z,17.74
2023-03-22T12:25:32.030Z,17.94
2023-03-22T12:28:12.921Z,18.18
2023-03-22T12:30:44.592Z,18.45
2023-03-22T12:33:32.541Z,18.51
2023-03-22T12:36:03.963Z,18.59
2023-03-22T12:38:49.018Z,18.87
2023-03-22T12:41:24.507Z,18.99
2023-03-22T12:44:07.918Z,18.95
2023-03-22T12:46:48.308Z,19.13
2023-03-22T12:49:27.628Z,19.10
2023-03-22T12:52:10.970Z,19.01
2023-03-22T12:54:38.439Z,19.25
2023-03-22T12:57:05.993Z,19.38
2023-03-22T12:59:32.887Z,19.33
2023-03-22T13:02:19.845Z,19.64
2023-03-22T13:04:52.376Z,19.63
2023-03-22T13:07:27.680Z,19.76
2023-03-22T13:09:54.639Z,20.05
2023-03-22T13:12:23.946Z,19.91
2023-03-22T13:14:50.360Z,20.00
2023-03-22T13:17:22.531Z,20.13
2023-03-22T13:19:54.721Z,20.35
2023-03-22T13:22:36.170Z,20.54
2023-03-22T13:25:12.524Z,20.67
2023-03-22T13:27:44.976Z,21.01
2023-03-22T13:30:36.560Z,21.27
2023-03-22T13:33:06.108Z,21.45
2023-03-22T13:35:44.749Z,21.52
2023-03-22T13:38:23.212Z,21.94
2023-03-22T13:40:59.640Z,22.25
2023-03-22T13:43:47.748Z,22.45
2023-03-22T13:46:29.740Z,22.54
2023-03-22T13:49:12.429Z,22.79
2023-03-22T13:51:40.605Z,23.09
2023-03-22T13:54:12.791Z,23.15
2023-03-22T13:56:42.311Z,23.28
2023-03-22T13:59:10.747Z,23.58
2023-03-22T14:01:52.840Z,24.07
2023-03-22T14:04:50.491Z,24.21
2023-03-22T14:07:29.264Z,24.09
2023-03-22T14:10:05.206Z,24.32
2023-03-22T14:12:59.684Z,24.34
2023-03-22T14:15:32.454Z,24.34
2023-03-22T14:18:14.517Z,24.47
2023-03-22T14:20:41.938Z,24.59
